createdAt,value
2019-05-29T00:00:43.555Z,7.17
2019-05-29T00:03:12.505Z,9.60
2019-05-29T00:05:41.423Z,5.47
2019-05-29T00:08:10.362Z,9.30
2019-05-29T00:10:38.998Z,6.63
2019-05-29T00:13:08.195Z,5.60
2019-05-29T00:15:36.703Z,5.63
2019-05-29T00:18:06.193Z,8.43
2019-05-29T00:20:34.703Z,7.40
2019-05-29T00:23:03.442Z,9.53
2019-05-29T00:25:31.844Z,5.77
2019-05-29T00:28:00.243Z,8.30
2019-05-29T00:30:28.638Z,9.70
2019-05-29T00:32:57.038Z,6.97
2019-05-29T00:35:25.460Z,7.47
2019-05-29T00:37:53.858Z,6.90
2019-05-29T00:40:22.338Z,8.73
2019-05-29T00:42:50.751Z,7.60
2019-05-29T00:45:19.303Z,7.23
2019-05-29T00:47:47.773Z,8.63
2019-05-29T00:50:16.516Z,8.50
2019-05-29T00:52:44.940Z,7.60
2019-05-29T00:55:14.700Z,10.10
2019-05-29T00:57:43.167Z,7.50
2019-05-29T01:00:11.728Z,10.17
2019-05-29T01:02:40.140Z,7.70
2019-05-29T01:05:09.831Z,9.50
2019-05-29T01:07:38.588Z,9.67
2019-05-29T01:10:08.526Z,10.97
2019-05-29T01:12:36.935Z,11.10
2019-05-29T01:15:08.480Z,6.97
2019-05-29T01:17:36.883Z,8.80
2019-05-29T01:20:06.653Z,11.83
2019-05-29T01:22:35.238Z,10.70
2019-05-29T01:25:03.920Z,8.20
2019-05-29T01:27:51.654Z,7.57
2019-05-29T01:30:21.208Z,10.20
2019-05-29T01:32:49.763Z,6.93
2019-05-29T01:35:18.173Z,7.50
2019-05-29T01:37:46.579Z,8.87
2019-05-29T01:40:21.159Z,8.83
2019-05-29T01:42:45.606Z,11.10
2019-05-29T01:45:15.418Z,7.13
2019-05-29T01:47:43.916Z,7.67
2019-05-29T01:50:12.696Z,9.20
2019-05-29T01:52:41.147Z,9.63
2019-05-29T01:55:09.902Z,9.07
2019-05-29T01:57:38.303Z,9.53
2019-05-29T02:00:08.529Z,8.07
2019-05-29T02:02:36.950Z,9.93
2019-05-29T02:05:06.386Z,10.47
2019-05-29T02:07:34.777Z,8.10
2019-05-29T02:10:04.904Z,13.30
2019-05-29T02:12:33.298Z,9.00
2019-05-29T02:15:01.724Z,13.33
2019-05-29T02:17:30.215Z,10.43
2019-05-29T02:19:58.612Z,9.43
2019-05-29T02:22:27.134Z,10.83
2019-05-29T02:24:55.622Z,9.93
2019-05-29T02:27:24.043Z,9.20
2019-05-29T02:29:52.451Z,8.30
2019-05-29T02:32:21.371Z,10.63
2019-05-29T02:34:49.878Z,10.53
2019-05-29T02:37:18.333Z,8.93
2019-05-29T02:39:46.785Z,8.10
2019-05-29T02:42:15.206Z,9.80
2019-05-29T02:44:43.612Z,9.87
2019-05-29T02:47:12.139Z,8.40
2019-05-29T02:49:40.545Z,8.63
2019-05-29T02:52:08.939Z,7.70
2019-05-29T02:54:37.354Z,9.27
2019-05-29T02:57:05.807Z,11.17
2019-05-29T02:59:34.241Z,11.60
2019-05-29T03:02:02.648Z,11.63
2019-05-29T03:04:32.818Z,9.27
2019-05-29T03:07:01.384Z,11.20
2019-05-29T03:09:30.712Z,8.73
2019-05-29T03:12:00.416Z,10.63
2019-05-29T03:14:29.648Z,8.33
2019-05-29T03:16:58.750Z,10.80
2019-05-29T03:19:28.015Z,8.07
2019-05-29T03:21:56.584Z,9.10
2019-05-29T03:24:26.690Z,7.63
2019-05-29T03:26:55.633Z,10.23
2019-05-29T03:29:25.759Z,9.73
2019-05-29T03:31:54.200Z,11.43
2019-05-29T03:34:22.627Z,12.23
2019-05-29T03:36:51.151Z,12.53
2019-05-29T03:39:19.547Z,8.67
2019-05-29T03:41:47.944Z,9.67
2019-05-29T03:44:16.370Z,11.40
2019-05-29T03:46:46.213Z,10.67
2019-05-29T03:49:14.864Z,9.73
2019-05-29T03:51:43.282Z,10.50
2019-05-29T03:54:11.712Z,8.30
2019-05-29T03:56:40.105Z,10.60
2019-05-29T03:59:08.540Z,10.93
2019-05-29T04:01:37.470Z,8.73
2019-05-29T04:04:06.073Z,7.80
2019-05-29T04:06:35.554Z,11.97
2019-05-29T04:09:06.369Z,9.83
2019-05-29T04:11:37.670Z,9.60
2019-05-29T04:14:06.439Z,9.60
2019-05-29T04:16:52.823Z,11.70
2019-05-29T04:19:06.439Z,10.93
2019-05-29T04:21:38.397Z,8.63
2019-05-29T04:24:06.993Z,11.10
2019-05-29T04:26:38.460Z,10.20
2019-05-29T04:29:07.015Z,6.43
2019-05-29T04:31:36.577Z,9.73
2019-05-29T04:34:05.471Z,10.50
2019-05-29T04:36:34.870Z,9.43
2019-05-29T04:39:05.162Z,7.90
2019-05-29T04:41:34.702Z,12.90
2019-05-29T04:44:03.446Z,10.03
2019-05-29T04:46:31.857Z,8.20
2019-05-29T04:49:00.284Z,11.60
2019-05-29T04:51:29.263Z,10.90
2019-05-29T04:53:58.046Z,7.43
2019-05-29T04:56:26.459Z,11.23
2019-05-29T04:58:54.969Z,9.67
2019-05-29T05:01:23.380Z,10.80
2019-05-29T05:03:51.460Z,8.67
2019-05-29T05:06:19.981Z,8.70
2019-05-29T05:08:48.370Z,10.07
2019-05-29T05:11:17.313Z,8.57
2019-05-29T05:13:45.980Z,9.00
2019-05-29T05:16:14.403Z,11.83
2019-05-29T05:18:42.805Z,9.07
2019-05-29T05:21:11.220Z,12.33
2019-05-29T05:23:40.562Z,11.10
2019-05-29T05:26:09.162Z,12.17
2019-05-29T05:28:38.598Z,7.90
2019-05-29T05:31:07.162Z,9.87
2019-05-29T05:33:36.641Z,6.57
2019-05-29T05:36:05.224Z,7.10
2019-05-29T05:38:34.615Z,6.07
2019-05-29T05:41:03.266Z,6.97
2019-05-29T05:43:32.776Z,7.10
2019-05-29T05:46:01.256Z,5.63
2019-05-29T05:48:30.884Z,5.20
2019-05-29T05:50:59.347Z,7.27
2019-05-29T05:53:27.773Z,6.50
2019-05-29T05:55:56.448Z,4.57
2019-05-29T05:58:24.850Z,6.42
2019-05-29T06:00:53.263Z,5.70
2019-05-29T06:03:21.704Z,4.53
2019-05-29T06:05:50.119Z,6.78
2019-05-29T06:08:18.587Z,6.20
2019-05-29T06:10:47.365Z,4.00
2019-05-29T06:13:15.774Z,7.35
2019-05-29T06:15:44.535Z,5.85
2019-05-29T06:18:21.051Z,4.30
2019-05-29T06:20:43.257Z,5.12
2019-05-29T06:23:11.796Z,7.22
2019-05-29T06:25:40.763Z,3.98
2019-05-29T06:28:10.538Z,6.70
2019-05-29T06:30:40.748Z,5.85
2019-05-29T06:33:09.109Z,4.28
2019-05-29T06:35:37.649Z,7.08
2019-05-29T06:38:06.022Z,6.40
2019-05-29T06:40:38.326Z,5.25
2019-05-29T06:43:11.161Z,5.92
2019-05-29T06:45:38.273Z,5.37
2019-05-29T06:48:08.652Z,6.67
2019-05-29T06:50:37.434Z,4.95
2019-05-29T06:53:06.020Z,2.98
2019-05-29T06:55:35.670Z,4.87
2019-05-29T06:58:04.380Z,3.55
2019-05-29T07:00:35.664Z,5.47
2019-05-29T07:03:02.990Z,5.90
2019-05-29T07:05:31.473Z,4.37
2019-05-29T07:08:17.046Z,4.45
2019-05-29T07:10:30.076Z,3.87
2019-05-29T07:12:58.470Z,5.17
2019-05-29T07:15:26.893Z,4.30
2019-05-29T07:17:55.278Z,4.72
2019-05-29T07:20:24.442Z,2.77
2019-05-29T07:22:55.925Z,4.58
2019-05-29T07:25:24.342Z,6.42
2019-05-29T07:27:52.822Z,4.53
2019-05-29T07:30:21.960Z,4.25
2019-05-29T07:32:57.634Z,7.37
2019-05-29T07:35:20.516Z,6.05
2019-05-29T07:37:48.945Z,7.42
2019-05-29T07:40:18.414Z,2.15
2019-05-29T07:42:54.965Z,5.95
2019-05-29T07:45:17.383Z,3.52
2019-05-29T07:47:46.706Z,4.03
2019-05-29T07:50:15.722Z,5.65
2019-05-29T07:52:45.368Z,3.77
2019-05-29T07:55:14.647Z,5.60
2019-05-29T07:57:43.076Z,4.90
2019-05-29T08:00:13.078Z,3.85
2019-05-29T08:02:41.572Z,3.98
2019-05-29T08:05:10.536Z,3.50
2019-05-29T08:07:39.394Z,4.75
2019-05-29T08:10:08.619Z,2.42
2019-05-29T08:12:41.708Z,4.05
2019-05-29T08:15:07.599Z,2.65
2019-05-29T08:17:36.072Z,2.77
2019-05-29T08:20:07.975Z,4.15
2019-05-29T08:22:36.736Z,2.83
2019-05-29T08:25:06.296Z,2.80
2019-05-29T08:27:34.999Z,5.92
2019-05-29T08:30:08.466Z,3.02
2019-05-29T08:32:36.897Z,6.85
2019-05-29T08:35:08.323Z,2.52
2019-05-29T08:37:36.745Z,3.70
2019-05-29T08:40:06.491Z,4.42
2019-05-29T08:42:34.925Z,3.15
2019-05-29T08:45:04.856Z,3.65
2019-05-29T08:47:33.276Z,2.92
2019-05-29T08:50:17.551Z,4.90
2019-05-29T08:52:32.088Z,3.80
2019-05-29T08:55:00.507Z,4.78
2019-05-29T08:57:28.935Z,4.10
2019-05-29T08:59:57.685Z,4.10
2019-05-29T09:02:26.220Z,3.80
2019-05-29T09:04:54.988Z,3.65
2019-05-29T09:07:23.411Z,3.92
2019-05-29T09:09:53.235Z,5.10
2019-05-29T09:12:21.938Z,3.77
2019-05-29T09:14:50.361Z,3.33
2019-05-29T09:17:18.784Z,5.10
2019-05-29T09:19:47.194Z,3.67
2019-05-29T09:22:16.492Z,2.47
2019-05-29T09:24:45.097Z,4.15
2019-05-29T09:27:14.473Z,2.55
2019-05-29T09:29:43.779Z,4.28
2019-05-29T09:32:13.491Z,4.33
2019-05-29T09:34:42.415Z,3.47
2019-05-29T09:37:10.974Z,3.75
2019-05-29T09:39:39.563Z,4.50
2019-05-29T09:42:08.097Z,4.97
2019-05-29T09:44:39.461Z,5.00
2019-05-29T09:47:06.756Z,2.90
2019-05-29T09:49:35.164Z,4.33
2019-05-29T09:52:04.158Z,4.43
2019-05-29T09:54:32.751Z,4.17
2019-05-29T09:57:01.345Z,5.50
2019-05-29T09:59:31.020Z,4.50
2019-05-29T10:02:00.339Z,3.30
2019-05-29T10:04:29.566Z,2.63
2019-05-29T10:06:57.987Z,4.37
2019-05-29T10:09:26.491Z,3.17
2019-05-29T10:11:58.592Z,4.50
2019-05-29T10:14:25.282Z,3.33
2019-05-29T10:16:56.145Z,4.30
2019-05-29T10:19:23.821Z,3.50
2019-05-29T10:21:52.263Z,4.57
2019-05-29T10:24:20.723Z,2.80
2019-05-29T10:26:49.128Z,4.97
2019-05-29T10:29:17.549Z,3.13
2019-05-29T10:31:47.723Z,3.30
2019-05-29T10:34:16.240Z,4.13
2019-05-29T10:36:48.270Z,4.10
2019-05-29T10:39:14.910Z,4.27
2019-05-29T10:41:44.595Z,5.13
2019-05-29T10:44:13.341Z,6.07
2019-05-29T10:46:41.824Z,3.70
2019-05-29T10:49:10.264Z,5.47
2019-05-29T10:51:56.980Z,3.70
2019-05-29T10:54:08.878Z,3.87
2019-05-29T10:56:37.287Z,5.90
2019-05-29T10:59:05.961Z,5.03
2019-05-29T11:01:34.744Z,3.50
2019-05-29T11:04:03.153Z,5.03
2019-05-29T11:06:31.558Z,5.53
2019-05-29T11:08:59.963Z,3.53
2019-05-29T11:11:28.384Z,5.10
2019-05-29T11:13:57.137Z,3.40
2019-05-29T11:16:25.688Z,3.87
2019-05-29T11:18:55.240Z,5.13
2019-05-29T11:21:24.110Z,5.33
2019-05-29T11:23:53.826Z,4.57
2019-05-29T11:26:22.528Z,5.10
2019-05-29T11:28:52.306Z,5.10
2019-05-29T11:31:20.960Z,4.53
2019-05-29T11:33:50.562Z,5.50
2019-05-29T11:36:19.237Z,4.87
2019-05-29T11:38:52.479Z,4.40
2019-05-29T11:41:26.488Z,6.10
2019-05-29T11:43:51.233Z,6.80
2019-05-29T11:46:19.638Z,4.37
2019-05-29T11:48:48.038Z,6.80
2019-05-29T11:51:16.508Z,4.67
2019-05-29T11:53:45.230Z,5.43
2019-05-29T11:56:13.639Z,5.23
2019-05-29T11:58:42.052Z,3.83
2019-05-29T12:01:10.470Z,7.37
2019-05-29T12:03:58.178Z,4.27
2019-05-29T12:06:09.079Z,4.70
2019-05-29T12:08:37.491Z,6.47
2019-05-29T12:11:07.141Z,4.50
2019-05-29T12:13:35.789Z,4.40
2019-05-29T12:16:04.281Z,3.80
2019-05-29T12:18:32.691Z,4.43
2019-05-29T12:21:01.764Z,4.77
2019-05-29T12:23:31.291Z,4.20
2019-05-29T12:26:16.683Z,4.53
2019-05-29T12:28:29.967Z,6.37
2019-05-29T12:30:59.061Z,5.43
2019-05-29T12:33:27.672Z,5.93
2019-05-29T12:35:59.124Z,5.67
2019-05-29T12:38:27.635Z,8.03
2019-05-29T12:40:57.584Z,4.67
2019-05-29T12:43:28.099Z,3.80
2019-05-29T12:45:57.709Z,4.00
2019-05-29T12:48:26.335Z,6.57
2019-05-29T12:50:56.035Z,8.13
2019-05-29T12:53:30.295Z,5.23
2019-05-29T12:55:56.117Z,4.63
2019-05-29T12:58:24.703Z,5.47
2019-05-29T13:00:54.437Z,3.97
2019-05-29T13:03:23.092Z,4.07
2019-05-29T13:05:51.518Z,4.97
2019-05-29T13:08:19.920Z,4.97
2019-05-29T13:10:48.337Z,7.23
2019-05-29T13:13:16.738Z,6.37
2019-05-29T13:15:45.443Z,3.70
2019-05-29T13:18:13.841Z,2.90
2019-05-29T13:20:42.255Z,4.13
2019-05-29T13:23:10.666Z,8.07
2019-05-29T13:25:39.165Z,5.67
2019-05-29T13:28:07.556Z,3.47
2019-05-29T13:30:35.962Z,6.20
2019-05-29T13:33:07.371Z,4.53
2019-05-29T13:35:34.512Z,4.17
2019-05-29T13:38:03.315Z,4.27
2019-05-29T13:40:31.897Z,4.70
2019-05-29T13:43:05.680Z,5.40
2019-05-29T13:45:30.435Z,4.53
2019-05-29T13:47:59.180Z,4.40
2019-05-29T13:50:27.744Z,6.47
2019-05-29T13:52:57.093Z,4.30
2019-05-29T13:55:25.634Z,5.57
2019-05-29T13:57:54.056Z,3.80
2019-05-29T14:00:33.752Z,6.17
2019-05-29T14:02:52.685Z,4.77
2019-05-29T14:05:21.160Z,4.40
2019-05-29T14:07:49.634Z,3.40
2019-05-29T14:10:18.381Z,3.63
2019-05-29T14:12:46.889Z,3.13
2019-05-29T14:15:15.751Z,3.50
2019-05-29T14:17:44.161Z,7.50
2019-05-29T14:20:13.514Z,5.67
2019-05-29T14:22:41.952Z,4.00
2019-05-29T14:25:11.665Z,3.97
2019-05-29T14:27:40.264Z,5.67
2019-05-29T14:30:10.624Z,7.03
2019-05-29T14:32:39.354Z,4.10
2019-05-29T14:35:10.436Z,5.10
2019-05-29T14:37:38.712Z,5.33
2019-05-29T14:40:08.013Z,4.23
2019-05-29T14:42:36.569Z,4.50
2019-05-29T14:45:08.446Z,4.40
2019-05-29T14:47:36.999Z,6.50
2019-05-29T14:50:09.568Z,7.70
2019-05-29T14:52:39.371Z,7.30
2019-05-29T14:55:09.360Z,7.03
2019-05-29T14:57:38.447Z,5.50
2019-05-29T15:00:20.967Z,8.90
2019-05-29T15:02:39.575Z,5.70
2019-05-29T15:05:09.740Z,4.90
2019-05-29T15:07:38.459Z,5.17
2019-05-29T15:10:19.783Z,7.17
2019-05-29T15:12:38.939Z,8.27
2019-05-29T15:15:08.969Z,7.83
2019-05-29T15:17:37.800Z,11.97
2019-05-29T15:20:10.407Z,9.37
2019-05-29T15:22:40.029Z,7.67
2019-05-29T15:25:18.469Z,8.80
2019-05-29T15:27:40.429Z,7.00
2019-05-29T15:30:11.313Z,8.00
2019-05-29T15:32:40.450Z,6.90
2019-05-29T15:35:14.428Z,7.70
2019-05-29T15:37:40.587Z,7.33
2019-05-29T15:40:11.142Z,8.07
2019-05-29T15:42:39.673Z,6.53
2019-05-29T15:45:10.144Z,8.03
2019-05-29T15:47:38.543Z,8.37
2019-05-29T15:50:11.577Z,6.67
2019-05-29T15:52:40.314Z,8.00
2019-05-29T15:55:24.888Z,8.60
2019-05-29T15:57:40.906Z,7.20
2019-05-29T16:00:11.573Z,8.47
2019-05-29T16:02:40.405Z,9.53
2019-05-29T16:05:10.873Z,8.00
2019-05-29T16:07:39.770Z,7.77
2019-05-29T16:10:13.068Z,7.97
2019-05-29T16:12:40.020Z,8.53
2019-05-29T16:15:11.047Z,7.33
2019-05-29T16:17:39.760Z,6.77
2019-05-29T16:20:10.343Z,8.93
2019-05-29T16:22:39.198Z,8.10
2019-05-29T16:25:08.276Z,7.23
2019-05-29T16:27:36.680Z,7.07
2019-05-29T16:30:11.226Z,7.90
2019-05-29T16:32:39.930Z,7.10
2019-05-29T16:35:09.088Z,7.57
2019-05-29T16:37:37.592Z,8.23
2019-05-29T16:40:08.887Z,7.93
2019-05-29T16:42:37.293Z,7.27
2019-05-29T16:45:08.463Z,7.83
2019-05-29T16:47:36.892Z,7.20
2019-05-29T16:50:08.700Z,8.43
2019-05-29T16:52:37.542Z,7.67
2019-05-29T16:55:06.588Z,7.27
2019-05-29T16:57:35.019Z,6.90
2019-05-29T17:00:07.520Z,6.97
2019-05-29T17:02:35.927Z,8.50
2019-05-29T17:05:06.315Z,6.93
2019-05-29T17:07:34.756Z,7.40
2019-05-29T17:10:04.842Z,7.50
2019-05-29T17:12:33.255Z,6.47
2019-05-29T17:15:01.682Z,9.90
2019-05-29T17:17:30.671Z,7.80
2019-05-29T17:19:59.196Z,6.83
2019-05-29T17:22:27.622Z,8.10
2019-05-29T17:24:56.043Z,6.30
2019-05-29T17:27:25.160Z,6.50
2019-05-29T17:29:53.761Z,8.73
2019-05-29T17:32:23.205Z,7.93
2019-05-29T17:34:51.783Z,6.83
2019-05-29T17:37:21.037Z,6.60
2019-05-29T17:39:49.675Z,6.93
2019-05-29T17:42:18.183Z,6.70
2019-05-29T17:44:46.678Z,6.70
2019-05-29T17:47:15.581Z,6.67
2019-05-29T17:49:44.361Z,6.97
2019-05-29T17:52:12.769Z,7.37
2019-05-29T17:54:41.170Z,7.67
2019-05-29T17:57:09.651Z,7.13
2019-05-29T17:59:38.116Z,7.07
2019-05-29T18:02:06.542Z,10.27
2019-05-29T18:04:34.969Z,6.07
2019-05-29T18:07:03.390Z,9.83
2019-05-29T18:09:31.874Z,8.17
2019-05-29T18:12:00.542Z,7.43
2019-05-29T18:14:28.960Z,8.83
2019-05-29T18:17:01.659Z,7.20
2019-05-29T18:19:30.101Z,7.43
2019-05-29T18:21:58.822Z,7.80
2019-05-29T18:24:28.048Z,7.73
2019-05-29T18:26:59.056Z,8.07
2019-05-29T18:29:26.867Z,7.10
2019-05-29T18:31:55.292Z,10.37
2019-05-29T18:34:25.115Z,8.23
2019-05-29T18:36:53.733Z,8.43
2019-05-29T18:39:22.223Z,8.00
2019-05-29T18:41:50.648Z,9.63
2019-05-29T18:44:19.074Z,11.63
2019-05-29T18:46:47.480Z,8.87
2019-05-29T18:49:15.995Z,11.43
2019-05-29T18:51:44.446Z,9.33
2019-05-29T18:54:12.924Z,9.40
2019-05-29T18:56:41.349Z,10.73
2019-05-29T18:59:09.757Z,9.10
2019-05-29T19:01:38.221Z,11.50
2019-05-29T19:04:06.644Z,11.00
2019-05-29T19:06:35.063Z,10.97
2019-05-29T19:09:05.171Z,13.33
2019-05-29T19:11:33.618Z,13.03
2019-05-29T19:14:02.033Z,14.40
2019-05-29T19:16:30.442Z,12.63
2019-05-29T19:18:58.859Z,12.00
2019-05-29T19:21:28.379Z,11.43
2019-05-29T19:23:59.589Z,15.17
2019-05-29T19:26:28.767Z,12.93
2019-05-29T19:28:57.344Z,12.83
2019-05-29T19:31:27.073Z,12.13
2019-05-29T19:33:55.650Z,13.23
2019-05-29T19:36:24.075Z,15.70
2019-05-29T19:38:52.486Z,13.90
2019-05-29T19:41:21.493Z,13.37
2019-05-29T19:43:50.185Z,15.03
2019-05-29T19:46:18.757Z,14.43
2019-05-29T19:48:47.173Z,15.77
2019-05-29T19:51:15.614Z,14.33
2019-05-29T19:53:44.114Z,15.87
2019-05-29T19:56:12.822Z,13.93
2019-05-29T19:58:41.294Z,14.97
2019-05-29T20:01:09.724Z,14.07
2019-05-29T20:03:39.438Z,13.90
2019-05-29T20:06:07.921Z,15.50
2019-05-29T20:08:39.400Z,15.10
2019-05-29T20:11:07.243Z,15.70
2019-05-29T20:13:35.876Z,18.70
2019-05-29T20:16:04.431Z,14.87
2019-05-29T20:18:34.064Z,16.70
2019-05-29T20:21:02.658Z,15.63
2019-05-29T20:23:32.487Z,17.67
2019-05-29T20:26:00.997Z,17.97
2019-05-29T20:28:30.083Z,16.90
2019-05-29T20:30:58.608Z,16.90
2019-05-29T20:33:27.029Z,18.30
2019-05-29T20:35:55.696Z,18.77
2019-05-29T20:38:24.107Z,16.80
2019-05-29T20:40:52.544Z,17.97
2019-05-29T20:43:20.958Z,17.13
2019-05-29T20:45:49.371Z,18.77
2019-05-29T20:48:17.807Z,19.83
2019-05-29T20:50:46.444Z,16.60
2019-05-29T20:53:14.900Z,17.00
2019-05-29T20:55:43.313Z,17.83
2019-05-29T20:58:23.992Z,16.90
2019-05-29T21:00:42.373Z,17.67
2019-05-29T21:03:10.992Z,17.00
2019-05-29T21:05:40.713Z,17.70
2019-05-29T21:08:09.312Z,18.43
2019-05-29T21:10:37.735Z,16.77
2019-05-29T21:13:06.135Z,17.47
2019-05-29T21:15:35.581Z,19.47
2019-05-29T21:18:04.157Z,17.20
2019-05-29T21:20:32.562Z,18.63
2019-05-29T21:23:00.979Z,17.80
2019-05-29T21:25:29.414Z,16.60
2019-05-29T21:27:57.828Z,16.20
2019-05-29T21:30:26.451Z,16.07
2019-05-29T21:32:55.154Z,16.40
2019-05-29T21:35:23.579Z,15.97
2019-05-29T21:37:52.018Z,15.97
2019-05-29T21:40:20.933Z,14.83
2019-05-29T21:42:49.434Z,15.13
2019-05-29T21:45:18.091Z,16.93
2019-05-29T21:47:47.303Z,15.10
2019-05-29T21:50:16.131Z,15.23
2019-05-29T21:52:45.583Z,18.70
2019-05-29T21:55:14.466Z,13.57
2019-05-29T21:57:45.570Z,15.17
2019-05-29T22:00:15.606Z,17.00
2019-05-29T22:02:44.512Z,15.47
2019-05-29T22:05:13.359Z,17.63
2019-05-29T22:07:42.777Z,16.23
2019-05-29T22:10:12.898Z,16.63
2019-05-29T22:12:41.282Z,16.30
2019-05-29T22:15:09.787Z,18.57
2019-05-29T22:17:38.267Z,17.73
2019-05-29T22:20:07.437Z,18.10
2019-05-29T22:22:35.880Z,16.63
2019-05-29T22:25:07.707Z,20.27
2019-05-29T22:27:37.186Z,17.13
2019-05-29T22:30:07.619Z,16.10
2019-05-29T22:32:36.053Z,16.53
2019-05-29T22:35:06.061Z,16.93
2019-05-29T22:37:34.555Z,17.47
2019-05-29T22:40:04.557Z,19.40
2019-05-29T22:42:32.981Z,17.47
2019-05-29T22:45:02.257Z,18.40
2019-05-29T22:47:30.879Z,21.63
2019-05-29T22:49:59.878Z,17.57
2019-05-29T22:52:28.387Z,19.93
2019-05-29T22:54:58.029Z,17.17
2019-05-29T22:57:26.664Z,18.07
2019-05-29T22:59:55.924Z,17.77
2019-05-29T23:02:24.517Z,19.63
2019-05-29T23:04:54.144Z,22.30
2019-05-29T23:07:22.730Z,23.30
2019-05-29T23:09:52.138Z,19.13
2019-05-29T23:12:20.643Z,22.23
2019-05-29T23:14:49.384Z,21.80
2019-05-29T23:17:17.843Z,19.37
2019-05-29T23:19:46.291Z,18.50
2019-05-29T23:22:14.714Z,18.57
2019-05-29T23:24:43.107Z,19.20
2019-05-29T23:27:11.532Z,22.53
2019-05-29T23:29:49.031Z,21.80
2019-05-29T23:32:10.173Z,21.97
2019-05-29T23:34:38.596Z,22.83
2019-05-29T23:37:07.022Z,23.73
2019-05-29T23:39:35.668Z,22.57
2019-05-29T23:42:23.742Z,22.17
2019-05-29T23:44:52.834Z,22.37
2019-05-29T23:47:22.475Z,22.33
2019-05-29T23:49:50.980Z,23.73
2019-05-29T23:52:19.463Z,24.50
2019-05-29T23:54:47.878Z,25.30
2019-05-29T23:57:16.287Z,27.03
2019-05-29T23:59:44.713Z,28.80
